createdAt,value
2023-01-25T00:00:08.445Z,9.50
2023-01-25T00:01:08.440Z,9.70
2023-01-25T00:02:08.489Z,9.80
2023-01-25T00:03:08.514Z,10.30
2023-01-25T00:04:08.431Z,10.40
2023-01-25T00:05:08.776Z,10.00
2023-01-25T00:06:08.421Z,10.10
2023-01-25T00:07:08.408Z,10.60
2023-01-25T00:08:08.410Z,10.50
2023-01-25T00:09:08.403Z,10.30
2023-01-25T00:10:08.399Z,10.60
2023-01-25T00:11:08.388Z,10.10
2023-01-25T00:12:08.395Z,10.70
2023-01-25T00:13:08.410Z,10.40
2023-01-25T00:14:08.379Z,9.90
2023-01-25T00:15:08.787Z,9.70
2023-01-25T00:16:08.447Z,9.90
2023-01-25T00:17:08.359Z,10.00
2023-01-25T00:18:08.364Z,10.50
2023-01-25T00:19:08.348Z,10.70
2023-01-25T00:20:08.356Z,10.00
2023-01-25T00:21:08.348Z,10.30
2023-01-25T00:22:08.342Z,10.40
2023-01-25T00:23:08.343Z,10.10
2023-01-25T00:24:08.417Z,10.30
2023-01-25T00:25:08.664Z,10.00
2023-01-25T00:26:08.317Z,9.80
2023-01-25T00:27:08.319Z,10.20
2023-01-25T00:28:08.311Z,10.00
2023-01-25T00:29:08.328Z,11.10
2023-01-25T00:30:08.296Z,10.00
2023-01-25T00:31:08.302Z,15.30
2023-01-25T00:32:08.398Z,9.10
2023-01-25T00:33:08.283Z,9.80
2023-01-25T00:34:08.282Z,9.30
2023-01-25T00:35:08.709Z,9.90
2023-01-25T00:36:08.277Z,9.80
2023-01-25T00:37:08.260Z,9.40
2023-01-25T00:38:08.269Z,9.70
2023-01-25T00:39:08.278Z,9.80
2023-01-25T00:40:08.253Z,9.90
2023-01-25T00:41:08.248Z,10.60
2023-01-25T00:42:08.251Z,9.90
2023-01-25T00:43:08.240Z,10.20
2023-01-25T00:44:08.265Z,9.60
2023-01-25T00:45:08.635Z,10.10
2023-01-25T00:46:08.369Z,10.10
2023-01-25T00:47:08.213Z,10.30
2023-01-25T00:48:08.209Z,10.50
2023-01-25T00:49:08.205Z,10.20
2023-01-25T00:50:08.209Z,10.10
2023-01-25T00:51:08.192Z,10.40
2023-01-25T00:52:08.195Z,10.70
2023-01-25T00:53:08.189Z,10.30
2023-01-25T00:54:08.178Z,10.10
2023-01-25T00:55:08.568Z,10.70
2023-01-25T00:56:08.174Z,10.50
2023-01-25T00:57:08.160Z,10.70
2023-01-25T00:58:08.160Z,10.50
2023-01-25T00:59:08.158Z,10.60
2023-01-25T01:00:08.152Z,10.50
2023-01-25T01:01:08.259Z,10.40
2023-01-25T01:02:08.143Z,10.50
2023-01-25T01:03:08.136Z,10.30
2023-01-25T01:04:08.138Z,10.80
2023-01-25T01:05:08.658Z,10.10
2023-01-25T01:06:08.122Z,11.00
2023-01-25T01:07:08.116Z,10.50
2023-01-25T01:08:08.113Z,10.30
2023-01-25T01:09:08.110Z,10.30
2023-01-25T01:10:08.104Z,10.50
2023-01-25T01:11:08.101Z,10.10
2023-01-25T01:12:08.098Z,10.30
2023-01-25T01:13:08.084Z,10.30
2023-01-25T01:14:08.099Z,11.70
2023-01-25T01:15:08.398Z,10.30
2023-01-25T01:16:08.282Z,10.10
2023-01-25T01:17:08.109Z,10.10
2023-01-25T01:18:08.069Z,9.70
2023-01-25T01:19:08.061Z,10.10
2023-01-25T01:20:08.067Z,9.70
2023-01-25T01:21:08.051Z,10.00
2023-01-25T01:22:08.046Z,10.00
2023-01-25T01:23:08.039Z,10.00
2023-01-25T01:24:08.151Z,10.30
2023-01-25T01:25:08.412Z,10.50
2023-01-25T01:26:08.027Z,10.40
2023-01-25T01:27:08.018Z,10.40
2023-01-25T01:28:08.016Z,10.20
2023-01-25T01:29:08.013Z,10.30
2023-01-25T01:30:08.007Z,10.30
2023-01-25T01:31:07.999Z,9.90
2023-01-25T01:32:08.124Z,10.30
2023-01-25T01:33:08.019Z,10.10
2023-01-25T01:34:07.989Z,10.20
2023-01-25T01:35:08.410Z,10.20
2023-01-25T01:36:08.188Z,10.40
2023-01-25T01:37:07.971Z,10.30
2023-01-25T01:38:07.991Z,10.70
2023-01-25T01:39:07.964Z,10.10
2023-01-25T01:40:07.970Z,10.00
2023-01-25T01:41:07.954Z,10.40
2023-01-25T01:42:07.947Z,10.50
2023-01-25T01:43:07.941Z,10.30
2023-01-25T01:44:07.946Z,10.50
2023-01-25T01:45:08.430Z,10.20
2023-01-25T01:46:07.992Z,10.20
2023-01-25T01:47:07.925Z,10.10
2023-01-25T01:48:07.916Z,10.80
2023-01-25T01:49:07.940Z,10.30
2023-01-25T01:50:07.912Z,12.20
2023-01-25T01:51:07.905Z,10.90
2023-01-25T01:52:07.903Z,10.70
2023-01-25T01:53:07.892Z,10.30
2023-01-25T01:54:07.891Z,10.50
2023-01-25T01:55:08.365Z,10.60
2023-01-25T01:56:07.889Z,10.10
2023-01-25T01:57:07.876Z,10.30
2023-01-25T01:58:07.878Z,10.30
2023-01-25T01:59:07.883Z,10.40
2023-01-25T02:00:07.868Z,10.20
2023-01-25T02:01:07.885Z,10.30
2023-01-25T02:02:07.912Z,10.00
2023-01-25T02:03:07.844Z,9.80
2023-01-25T02:04:07.851Z,9.90
2023-01-25T02:05:08.302Z,10.30
2023-01-25T02:06:07.834Z,10.00
2023-01-25T02:07:07.839Z,10.10
2023-01-25T02:08:07.826Z,9.70
2023-01-25T02:09:07.825Z,9.70
2023-01-25T02:10:07.817Z,10.10
2023-01-25T02:11:07.813Z,9.70
2023-01-25T02:12:07.806Z,9.80
2023-01-25T02:13:07.796Z,10.30
2023-01-25T02:14:07.794Z,10.10
2023-01-25T02:15:08.148Z,10.20
2023-01-25T02:16:07.865Z,10.50
2023-01-25T02:17:07.779Z,10.10
2023-01-25T02:18:07.777Z,9.90
2023-01-25T02:19:07.767Z,10.30
2023-01-25T02:20:07.775Z,10.60
2023-01-25T02:21:07.788Z,10.20
2023-01-25T02:22:07.783Z,10.30
2023-01-25T02:23:07.762Z,10.40
2023-01-25T02:24:07.805Z,10.10
2023-01-25T02:25:08.129Z,9.70
2023-01-25T02:26:07.742Z,10.20
2023-01-25T02:27:07.731Z,10.20
2023-01-25T02:28:07.731Z,9.90
2023-01-25T02:29:07.730Z,9.90
2023-01-25T02:30:07.716Z,10.70
2023-01-25T02:31:07.833Z,10.50
2023-01-25T02:32:07.746Z,10.00
2023-01-25T02:33:07.701Z,10.40
2023-01-25T02:34:07.699Z,10.40
2023-01-25T02:35:08.141Z,10.40
2023-01-25T02:36:07.720Z,10.80
2023-01-25T02:37:07.711Z,9.90
2023-01-25T02:38:07.682Z,10.10
2023-01-25T02:39:07.672Z,10.00
2023-01-25T02:40:07.672Z,9.90
2023-01-25T02:41:07.672Z,10.10
2023-01-25T02:42:07.676Z,10.00
2023-01-25T02:43:07.651Z,10.00
2023-01-25T02:44:07.657Z,9.50
2023-01-25T02:45:07.961Z,10.20
2023-01-25T02:46:07.716Z,10.00
2023-01-25T02:47:07.646Z,10.30
2023-01-25T02:48:07.631Z,10.20
2023-01-25T02:49:07.646Z,9.70
2023-01-25T02:50:07.620Z,10.30
2023-01-25T02:51:07.621Z,12.00
2023-01-25T02:52:07.618Z,9.90
2023-01-25T02:53:07.633Z,10.00
2023-01-25T02:54:07.603Z,10.00
2023-01-25T02:55:07.987Z,9.80
2023-01-25T02:56:07.594Z,10.10
2023-01-25T02:57:07.591Z,9.80
2023-01-25T02:58:07.591Z,9.60
2023-01-25T02:59:07.585Z,10.00
2023-01-25T03:00:07.574Z,10.20
2023-01-25T03:01:07.634Z,10.00
2023-01-25T03:02:07.571Z,9.50
2023-01-25T03:03:07.856Z,10.50
2023-01-25T03:04:07.565Z,9.90
2023-01-25T03:05:07.933Z,10.10
2023-01-25T03:06:07.557Z,10.00
2023-01-25T03:07:07.540Z,9.70
2023-01-25T03:08:07.537Z,9.70
2023-01-25T03:09:07.883Z,9.70
2023-01-25T03:10:07.545Z,9.60
2023-01-25T03:11:07.530Z,9.90
2023-01-25T03:12:07.517Z,9.60
2023-01-25T03:13:07.515Z,9.50
2023-01-25T03:14:07.508Z,9.30
2023-01-25T03:15:07.845Z,9.60
2023-01-25T03:16:07.573Z,9.70
2023-01-25T03:17:07.515Z,9.50
2023-01-25T03:18:07.490Z,9.30
2023-01-25T03:19:07.494Z,9.70
2023-01-25T03:20:07.480Z,9.70
2023-01-25T03:21:07.473Z,9.60
2023-01-25T03:22:07.468Z,9.60
2023-01-25T03:23:07.463Z,9.80
2023-01-25T03:24:07.503Z,9.70
2023-01-25T03:25:07.827Z,9.80
2023-01-25T03:26:07.453Z,9.80
2023-01-25T03:27:07.449Z,10.00
2023-01-25T03:28:07.442Z,9.80
2023-01-25T03:29:07.438Z,9.40
2023-01-25T03:30:07.429Z,9.80
2023-01-25T03:31:07.447Z,9.50
2023-01-25T03:32:07.545Z,9.40
2023-01-25T03:33:07.413Z,9.60
2023-01-25T03:34:07.408Z,9.80
2023-01-25T03:35:07.721Z,9.90
2023-01-25T03:36:07.494Z,10.10
2023-01-25T03:37:07.398Z,9.50
2023-01-25T03:38:07.394Z,10.00
2023-01-25T03:39:07.383Z,9.80
2023-01-25T03:40:07.384Z,10.10
2023-01-25T03:41:07.397Z,9.40
2023-01-25T03:42:07.409Z,9.60
2023-01-25T03:43:07.365Z,9.40
2023-01-25T03:44:07.360Z,9.50
2023-01-25T03:45:07.364Z,9.20
2023-01-25T03:46:07.352Z,9.50
2023-01-25T03:47:07.425Z,9.40
2023-01-25T03:48:07.341Z,9.60
2023-01-25T03:49:07.338Z,9.00
2023-01-25T03:50:07.349Z,8.90
2023-01-25T03:51:07.344Z,9.10
2023-01-25T03:52:07.324Z,9.00
2023-01-25T03:53:07.316Z,9.50
2023-01-25T03:54:07.309Z,9.30
2023-01-25T03:55:07.655Z,9.60
2023-01-25T03:56:07.304Z,10.10
2023-01-25T03:57:07.323Z,9.50
2023-01-25T03:58:07.298Z,9.30
2023-01-25T03:59:07.302Z,9.50
2023-01-25T04:00:07.279Z,9.20
2023-01-25T04:01:07.533Z,9.40
2023-01-25T04:02:07.323Z,9.60
2023-01-25T04:03:07.276Z,9.30
2023-01-25T04:04:07.277Z,9.20
2023-01-25T04:05:07.563Z,9.20
2023-01-25T04:06:07.255Z,9.00
2023-01-25T04:07:07.250Z,8.80
2023-01-25T04:08:07.249Z,9.40
2023-01-25T04:09:07.241Z,9.50
2023-01-25T04:10:07.249Z,9.20
2023-01-25T04:11:07.239Z,9.40
2023-01-25T04:12:07.229Z,9.20
2023-01-25T04:13:07.240Z,9.70
2023-01-25T04:14:07.219Z,9.70
2023-01-25T04:15:07.657Z,9.50
2023-01-25T04:16:07.208Z,9.00
2023-01-25T04:17:07.206Z,10.50
2023-01-25T04:18:07.198Z,9.60
2023-01-25T04:19:07.214Z,9.40
2023-01-25T04:20:07.187Z,8.80
2023-01-25T04:21:07.187Z,9.20
2023-01-25T04:22:07.184Z,9.10
2023-01-25T04:23:07.185Z,9.10
2023-01-25T04:24:07.249Z,9.20
2023-01-25T04:25:07.731Z,9.70
2023-01-25T04:26:07.154Z,9.20
2023-01-25T04:27:07.159Z,9.10
2023-01-25T04:28:07.146Z,9.00
2023-01-25T04:29:07.176Z,9.30
2023-01-25T04:30:07.138Z,9.10
2023-01-25T04:31:07.152Z,9.10
2023-01-25T04:32:07.301Z,9.10
2023-01-25T04:33:07.137Z,9.10
2023-01-25T04:34:07.117Z,8.90
2023-01-25T04:35:07.534Z,9.10
2023-01-25T04:36:07.109Z,9.40
2023-01-25T04:37:07.110Z,8.80
2023-01-25T04:38:07.097Z,8.70
2023-01-25T04:39:07.104Z,8.70
2023-01-25T04:40:07.126Z,8.90
2023-01-25T04:41:07.093Z,9.20
2023-01-25T04:42:07.112Z,8.90
2023-01-25T04:43:07.098Z,9.40
2023-01-25T04:44:07.077Z,9.10
2023-01-25T04:45:07.633Z,8.50
2023-01-25T04:46:07.104Z,8.50
2023-01-25T04:47:07.068Z,8.20
2023-01-25T04:48:07.049Z,8.50
2023-01-25T04:49:07.047Z,8.60
2023-01-25T04:50:07.446Z,8.00
2023-01-25T04:51:07.049Z,9.00
2023-01-25T04:52:07.070Z,9.50
2023-01-25T04:53:07.039Z,9.40
2023-01-25T04:54:07.023Z,8.60
2023-01-25T04:55:07.457Z,8.90
2023-01-25T04:56:07.020Z,8.50
2023-01-25T04:57:07.011Z,9.50
2023-01-25T04:58:07.006Z,9.60
2023-01-25T04:59:06.997Z,9.30
2023-01-25T05:00:06.993Z,8.60
2023-01-25T05:01:07.062Z,8.70
2023-01-25T05:02:07.041Z,8.30
2023-01-25T05:03:06.987Z,8.30
2023-01-25T05:04:06.973Z,8.30
2023-01-25T05:05:07.610Z,8.50
2023-01-25T05:06:06.963Z,8.40
2023-01-25T05:07:06.963Z,8.40
2023-01-25T05:08:06.956Z,8.80
2023-01-25T05:09:06.951Z,8.30
2023-01-25T05:10:06.948Z,8.50
2023-01-25T05:11:06.941Z,7.70
2023-01-25T05:12:06.939Z,8.40
2023-01-25T05:13:06.939Z,8.20
2023-01-25T05:14:06.926Z,7.90
2023-01-25T05:15:07.333Z,8.10
2023-01-25T05:16:08.965Z,8.30
2023-01-25T05:17:06.955Z,8.30
2023-01-25T05:18:06.909Z,8.10
2023-01-25T05:19:06.908Z,8.40
2023-01-25T05:20:06.901Z,8.60
2023-01-25T05:21:06.914Z,8.20
2023-01-25T05:22:06.893Z,7.90
2023-01-25T05:23:06.888Z,8.20
2023-01-25T05:24:06.934Z,7.50
2023-01-25T05:25:07.383Z,8.40
2023-01-25T05:26:06.870Z,8.10
2023-01-25T05:27:06.864Z,8.50
2023-01-25T05:28:06.866Z,8.50
2023-01-25T05:29:06.871Z,8.00
2023-01-25T05:30:06.851Z,9.10
2023-01-25T05:31:06.907Z,8.70
2023-01-25T05:32:06.992Z,8.20
2023-01-25T05:33:06.860Z,8.50
2023-01-25T05:34:06.842Z,8.20
2023-01-25T05:35:07.404Z,8.10
2023-01-25T05:36:06.821Z,8.00
2023-01-25T05:37:06.823Z,8.10
2023-01-25T05:38:06.849Z,10.10
2023-01-25T05:39:06.817Z,7.80
2023-01-25T05:40:06.813Z,8.20
2023-01-25T05:41:06.800Z,8.30
2023-01-25T05:42:06.793Z,8.70
2023-01-25T05:43:06.789Z,8.60
2023-01-25T05:44:06.779Z,8.10
2023-01-25T05:45:07.386Z,8.00
2023-01-25T05:46:06.830Z,7.70
2023-01-25T05:47:06.877Z,8.60
2023-01-25T05:48:06.762Z,7.90
2023-01-25T05:49:06.779Z,8.00
2023-01-25T05:50:08.748Z,8.00
2023-01-25T05:51:06.748Z,8.00
2023-01-25T05:52:06.756Z,8.00
2023-01-25T05:53:06.766Z,7.80
2023-01-25T05:54:06.731Z,8.40
2023-01-25T05:55:07.232Z,10.30
2023-01-25T05:56:06.726Z,8.50
2023-01-25T05:57:06.725Z,9.10
2023-01-25T05:58:06.724Z,8.50
2023-01-25T05:59:06.713Z,8.70
2023-01-25T06:00:06.707Z,9.10
2023-01-25T06:01:06.707Z,8.80
2023-01-25T06:02:06.727Z,8.50
2023-01-25T06:03:06.942Z,8.30
2023-01-25T06:04:06.696Z,8.50
2023-01-25T06:05:07.193Z,8.30
2023-01-25T06:06:06.706Z,8.00
2023-01-25T06:07:06.700Z,8.20
2023-01-25T06:08:06.670Z,8.30
2023-01-25T06:09:06.683Z,7.80
2023-01-25T06:10:06.661Z,9.80
2023-01-25T06:11:06.663Z,8.30
2023-01-25T06:12:06.647Z,8.70
2023-01-25T06:13:06.647Z,8.00
2023-01-25T06:14:06.642Z,8.20
2023-01-25T06:15:07.033Z,8.10
2023-01-25T06:16:06.729Z,8.70
2023-01-25T06:17:06.625Z,8.50
2023-01-25T06:18:06.617Z,7.90
2023-01-25T06:19:06.624Z,7.90
2023-01-25T06:20:06.614Z,7.70
2023-01-25T06:21:06.633Z,8.20
2023-01-25T06:22:06.602Z,8.00
2023-01-25T06:23:06.620Z,8.30
2023-01-25T06:24:06.673Z,8.30
2023-01-25T06:26:06.587Z,9.30
2023-01-25T06:27:06.589Z,8.30
2023-01-25T06:28:06.588Z,9.00
2023-01-25T06:29:06.564Z,9.20
2023-01-25T06:30:06.571Z,8.80
2023-01-25T06:31:06.587Z,9.10
2023-01-25T06:32:06.590Z,9.50
2023-01-25T06:33:06.560Z,8.50
2023-01-25T06:34:06.605Z,8.70
2023-01-25T06:35:06.916Z,8.90
2023-01-25T06:36:06.536Z,8.90
2023-01-25T06:37:06.551Z,9.10
2023-01-25T06:38:06.531Z,8.60
2023-01-25T06:39:06.520Z,8.70
2023-01-25T06:40:06.516Z,8.60
2023-01-25T06:41:06.535Z,8.20
2023-01-25T06:42:06.506Z,8.30
2023-01-25T06:43:06.498Z,8.10
2023-01-25T06:44:06.507Z,8.40
2023-01-25T06:45:06.943Z,8.50
2023-01-25T06:46:06.524Z,8.50
2023-01-25T06:47:06.481Z,8.40
2023-01-25T06:48:06.488Z,8.90
2023-01-25T06:49:06.476Z,8.10
2023-01-25T06:50:06.485Z,8.30
2023-01-25T06:51:06.470Z,8.40
2023-01-25T06:52:06.469Z,8.30
2023-01-25T06:53:06.472Z,10.50
2023-01-25T06:54:06.457Z,8.60
2023-01-25T06:55:06.766Z,8.70
2023-01-25T06:56:06.442Z,8.80
2023-01-25T06:57:06.429Z,8.20
2023-01-25T06:58:06.432Z,8.50
2023-01-25T06:59:06.425Z,8.40
2023-01-25T07:00:06.419Z,8.50
2023-01-25T07:01:06.416Z,8.00
2023-01-25T07:02:06.508Z,8.20
2023-01-25T07:03:06.440Z,7.90
2023-01-25T07:04:08.182Z,8.00
2023-01-25T07:05:06.471Z,7.80
2023-01-25T07:06:06.405Z,8.20
2023-01-25T07:07:06.383Z,7.80
2023-01-25T07:08:06.377Z,8.20
2023-01-25T07:09:06.403Z,8.20
2023-01-25T07:10:06.372Z,8.10
2023-01-25T07:11:06.380Z,8.20
2023-01-25T07:12:06.362Z,8.10
2023-01-25T07:13:06.353Z,8.70
2023-01-25T07:14:06.376Z,8.70
2023-01-25T07:15:06.485Z,8.60
2023-01-25T07:16:06.345Z,8.80
2023-01-25T07:17:06.343Z,8.50
2023-01-25T07:18:15.864Z,9.00
2023-01-25T07:19:06.338Z,8.60
2023-01-25T07:20:06.326Z,9.10
2023-01-25T07:21:06.352Z,8.20
2023-01-25T07:22:06.312Z,8.00
2023-01-25T07:23:06.302Z,8.70
2023-01-25T07:24:06.400Z,8.60
2023-01-25T07:25:06.375Z,9.80
2023-01-25T07:26:06.397Z,8.00
2023-01-25T07:27:06.283Z,9.30
2023-01-25T07:28:06.283Z,8.20
2023-01-25T07:29:06.276Z,8.60
2023-01-25T07:30:06.277Z,7.90
2023-01-25T07:31:06.417Z,7.80
2023-01-25T07:32:06.267Z,8.00
2023-01-25T07:33:06.256Z,8.10
2023-01-25T07:34:06.260Z,7.90
2023-01-25T07:35:06.267Z,8.50
2023-01-25T07:36:06.253Z,8.20
2023-01-25T07:37:06.234Z,8.00
2023-01-25T07:38:06.234Z,8.40
2023-01-25T07:39:06.242Z,8.30
2023-01-25T07:40:06.221Z,7.80
2023-01-25T07:41:06.233Z,8.70
2023-01-25T07:42:06.211Z,8.50
2023-01-25T07:43:06.234Z,8.80
2023-01-25T07:44:06.213Z,9.30
2023-01-25T07:45:06.193Z,9.10
2023-01-25T07:46:06.197Z,8.80
2023-01-25T07:47:06.187Z,8.80
2023-01-25T07:48:06.182Z,9.00
2023-01-25T07:49:06.173Z,8.90
2023-01-25T07:50:06.176Z,8.30
2023-01-25T07:51:06.167Z,9.10
2023-01-25T07:52:06.163Z,8.40
2023-01-25T07:53:06.158Z,7.80
2023-01-25T07:54:06.157Z,7.20
2023-01-25T07:55:06.250Z,7.90
2023-01-25T07:56:06.142Z,7.80
2023-01-25T07:57:06.162Z,7.60
2023-01-25T07:58:06.135Z,8.30
2023-01-25T07:59:06.126Z,8.60
2023-01-25T08:00:06.134Z,9.60
2023-01-25T08:01:06.119Z,11.70
2023-01-25T08:02:06.119Z,9.10
2023-01-25T08:03:06.111Z,9.60
2023-01-25T08:04:06.104Z,8.80
2023-01-25T08:05:06.146Z,8.90
2023-01-25T08:06:06.119Z,8.60
2023-01-25T08:07:06.094Z,9.30
2023-01-25T08:08:06.083Z,9.00
2023-01-25T08:09:06.075Z,8.40
2023-01-25T08:10:06.076Z,8.40
2023-01-25T08:11:06.065Z,8.60
2023-01-25T08:12:08.569Z,8.70
2023-01-25T08:13:06.089Z,8.50
2023-01-25T08:14:06.062Z,8.80
2023-01-25T08:15:06.058Z,8.90
2023-01-25T08:16:06.048Z,9.40
2023-01-25T08:17:06.054Z,9.20
2023-01-25T08:18:06.035Z,9.10
2023-01-25T08:19:06.028Z,8.70
2023-01-25T08:20:06.022Z,9.00
2023-01-25T08:21:06.027Z,10.00
2023-01-25T08:22:06.014Z,8.80
2023-01-25T08:23:06.012Z,9.90
2023-01-25T08:24:06.119Z,8.70
2023-01-25T08:25:06.031Z,8.90
2023-01-25T08:26:06.072Z,8.80
2023-01-25T08:27:05.996Z,8.90
2023-01-25T08:28:05.983Z,8.90
2023-01-25T08:29:06.011Z,9.30
2023-01-25T08:30:05.984Z,8.90
2023-01-25T08:31:05.975Z,9.20
2023-01-25T08:32:06.038Z,8.70
2023-01-25T08:33:05.964Z,8.90
2023-01-25T08:34:05.979Z,8.90
2023-01-25T08:35:05.955Z,9.00
2023-01-25T08:36:05.946Z,9.30
2023-01-25T08:37:05.939Z,9.10
2023-01-25T08:38:05.942Z,9.40
2023-01-25T08:39:05.930Z,9.60
2023-01-25T08:40:05.926Z,9.20
2023-01-25T08:41:05.927Z,9.40
2023-01-25T08:42:05.918Z,9.90
2023-01-25T08:43:05.911Z,9.40
2023-01-25T08:44:05.947Z,9.20
2023-01-25T08:45:05.924Z,9.80
2023-01-25T08:46:05.904Z,9.50
2023-01-25T08:47:05.893Z,10.00
2023-01-25T08:48:05.900Z,9.50
2023-01-25T08:49:05.880Z,8.80
2023-01-25T08:50:05.877Z,8.60
2023-01-25T08:51:05.868Z,8.80
2023-01-25T08:52:05.867Z,8.80
2023-01-25T08:53:05.870Z,9.50
2023-01-25T08:54:05.862Z,9.60
2023-01-25T08:55:05.852Z,8.60
2023-01-25T08:56:05.849Z,8.70
2023-01-25T08:57:05.845Z,8.00
2023-01-25T08:58:05.835Z,7.90
2023-01-25T08:59:05.834Z,8.40
2023-01-25T09:00:05.827Z,8.10
2023-01-25T09:01:05.857Z,8.40
2023-01-25T09:02:05.819Z,8.90
2023-01-25T09:03:05.810Z,8.70
2023-01-25T09:04:05.842Z,8.70
2023-01-25T09:05:05.804Z,8.70
2023-01-25T09:06:05.792Z,8.90
2023-01-25T09:07:05.801Z,9.20
2023-01-25T09:08:06.881Z,9.30
2023-01-25T09:09:05.794Z,9.40
2023-01-25T09:10:05.776Z,9.40
2023-01-25T09:11:05.777Z,10.70
2023-01-25T09:12:05.766Z,10.00
2023-01-25T09:13:07.739Z,9.70
2023-01-25T09:14:05.753Z,9.40
2023-01-25T09:15:05.773Z,9.10
2023-01-25T09:16:05.750Z,9.70
2023-01-25T09:17:05.758Z,9.40
2023-01-25T09:18:05.737Z,8.80
2023-01-25T09:19:05.737Z,9.40
2023-01-25T09:20:05.724Z,9.80
2023-01-25T09:21:05.720Z,9.30
2023-01-25T09:22:05.732Z,8.80
2023-01-25T09:23:05.710Z,10.00
2023-01-25T09:24:07.327Z,9.70
2023-01-25T09:25:05.702Z,11.30
2023-01-25T09:26:05.691Z,9.30
2023-01-25T09:27:05.689Z,9.70
2023-01-25T09:28:05.683Z,9.50
2023-01-25T09:29:05.682Z,8.30
2023-01-25T09:30:10.926Z,8.80
2023-01-25T09:31:20.497Z,8.90
2023-01-25T09:32:05.746Z,8.70
2023-01-25T09:33:05.682Z,8.30
2023-01-25T09:34:05.655Z,9.00
2023-01-25T09:35:05.662Z,8.30
2023-01-25T09:36:05.644Z,8.50
2023-01-25T09:37:05.674Z,8.70
2023-01-25T09:38:05.635Z,8.60
2023-01-25T09:39:05.626Z,8.10
2023-01-25T09:40:05.625Z,8.10
2023-01-25T09:41:05.627Z,8.40
2023-01-25T09:42:14.029Z,8.50
2023-01-25T09:43:05.612Z,8.00
2023-01-25T09:44:14.634Z,8.20
2023-01-25T09:45:05.615Z,9.10
2023-01-25T09:46:05.607Z,8.90
2023-01-25T09:47:05.601Z,8.40
2023-01-25T09:48:05.587Z,8.70
2023-01-25T09:49:07.794Z,9.30
2023-01-25T09:50:05.604Z,8.40
2023-01-25T09:51:05.579Z,8.60
2023-01-25T09:52:05.562Z,8.80
2023-01-25T09:53:05.576Z,8.50
2023-01-25T09:54:05.557Z,9.10
2023-01-25T09:55:05.553Z,9.30
2023-01-25T09:56:05.551Z,8.70
2023-01-25T09:57:05.549Z,9.40
2023-01-25T09:58:05.544Z,9.10
2023-01-25T09:59:05.535Z,8.50
2023-01-25T10:00:07.180Z,8.90
2023-01-25T10:01:09.650Z,8.80
2023-01-25T10:02:05.552Z,8.90
2023-01-25T10:03:05.587Z,8.50
2023-01-25T10:04:05.504Z,8.30
2023-01-25T10:05:05.525Z,8.40
2023-01-25T10:06:05.497Z,8.60
2023-01-25T10:07:05.491Z,8.10
2023-01-25T10:08:05.492Z,9.10
2023-01-25T10:09:05.485Z,9.20
2023-01-25T10:10:05.476Z,9.20
2023-01-25T10:11:05.503Z,8.90
2023-01-25T10:12:05.469Z,9.80
2023-01-25T10:13:05.475Z,12.10
2023-01-25T10:14:05.459Z,9.20
2023-01-25T10:15:05.455Z,9.30
2023-01-25T10:16:09.896Z,9.10
2023-01-25T10:17:05.449Z,8.90
2023-01-25T10:18:05.432Z,8.90
2023-01-25T10:19:05.435Z,9.50
2023-01-25T10:20:05.516Z,9.70
2023-01-25T10:21:05.447Z,9.10
2023-01-25T10:22:05.473Z,8.70
2023-01-25T10:23:05.414Z,9.20
2023-01-25T10:24:05.461Z,8.70
2023-01-25T10:25:05.411Z,9.00
2023-01-25T10:26:05.396Z,8.80
2023-01-25T10:27:05.398Z,9.50
2023-01-25T10:28:05.383Z,9.60
2023-01-25T10:29:05.384Z,9.10
2023-01-25T10:30:05.380Z,9.50
2023-01-25T10:31:05.585Z,9.50
2023-01-25T10:32:05.366Z,9.40
2023-01-25T10:33:05.372Z,9.50
2023-01-25T10:34:05.357Z,8.90
2023-01-25T10:35:05.354Z,9.00
2023-01-25T10:36:05.356Z,9.30
2023-01-25T10:37:05.369Z,9.10
2023-01-25T10:38:05.342Z,10.70
2023-01-25T10:39:05.341Z,10.40
2023-01-25T10:40:05.326Z,8.90
2023-01-25T10:41:05.352Z,9.10
2023-01-25T10:42:05.314Z,9.30
2023-01-25T10:43:05.323Z,8.90
2023-01-25T10:44:05.307Z,9.10
2023-01-25T10:45:05.321Z,8.70
2023-01-25T10:46:05.297Z,9.30
2023-01-25T10:47:08.330Z,9.00
2023-01-25T10:48:05.299Z,9.30
2023-01-25T10:49:05.294Z,9.10
2023-01-25T10:50:05.280Z,8.90
2023-01-25T10:51:05.277Z,8.50
2023-01-25T10:52:05.273Z,9.00
2023-01-25T10:53:05.302Z,8.80
2023-01-25T10:54:05.255Z,8.70
2023-01-25T10:55:05.255Z,8.80
2023-01-25T10:56:05.249Z,8.50
2023-01-25T10:57:05.248Z,9.30
2023-01-25T10:58:05.239Z,9.40
2023-01-25T10:59:05.248Z,8.90
2023-01-25T11:00:05.237Z,8.90
2023-01-25T11:01:05.226Z,9.00
2023-01-25T11:02:05.276Z,9.50
2023-01-25T11:03:05.307Z,8.60
2023-01-25T11:04:05.212Z,8.90
2023-01-25T11:05:05.206Z,8.70
2023-01-25T11:06:05.198Z,9.00
2023-01-25T11:07:05.212Z,9.00
2023-01-25T11:08:05.187Z,8.50
2023-01-25T11:09:05.263Z,8.70
2023-01-25T11:10:05.174Z,8.90
2023-01-25T11:11:05.196Z,9.00
2023-01-25T11:12:05.169Z,9.10
2023-01-25T11:13:05.178Z,8.90
2023-01-25T11:14:05.163Z,9.40
2023-01-25T11:15:05.161Z,9.60
2023-01-25T11:16:05.219Z,8.90
2023-01-25T11:17:05.223Z,8.90
2023-01-25T11:18:05.139Z,8.90
2023-01-25T11:19:05.143Z,8.80
2023-01-25T11:20:05.137Z,8.70
2023-01-25T11:21:05.129Z,9.20
2023-01-25T11:22:05.118Z,9.10
2023-01-25T11:23:05.119Z,8.80
2023-01-25T11:24:05.179Z,8.90
2023-01-25T11:25:05.128Z,9.00
2023-01-25T11:26:05.103Z,8.70
2023-01-25T11:27:05.106Z,8.20
2023-01-25T11:28:05.091Z,8.50
2023-01-25T11:29:05.093Z,8.70
2023-01-25T11:30:05.081Z,8.50
2023-01-25T11:31:05.213Z,8.40
2023-01-25T11:32:05.078Z,8.60
2023-01-25T11:33:05.066Z,8.60
2023-01-25T11:34:05.061Z,8.10
2023-01-25T11:35:05.063Z,8.60
2023-01-25T11:36:05.055Z,8.80
2023-01-25T11:37:05.062Z,9.00
2023-01-25T11:38:05.039Z,9.30
2023-01-25T11:39:05.047Z,9.10
2023-01-25T11:40:05.355Z,8.50
2023-01-25T11:41:05.051Z,8.50
2023-01-25T11:42:05.019Z,9.20
2023-01-25T11:43:05.024Z,9.90
2023-01-25T11:44:05.009Z,8.70
2023-01-25T11:45:05.009Z,9.10
2023-01-25T11:46:05.085Z,12.00
2023-01-25T11:47:05.001Z,8.10
2023-01-25T11:48:04.990Z,8.60
2023-01-25T11:49:04.993Z,8.20
2023-01-25T11:50:04.987Z,8.40
2023-01-25T11:51:04.980Z,8.50
2023-01-25T11:52:04.983Z,9.80
2023-01-25T11:53:04.973Z,8.40
2023-01-25T11:54:04.964Z,9.00
2023-01-25T11:55:04.965Z,8.00
2023-01-25T11:56:04.959Z,8.60
2023-01-25T11:57:04.968Z,8.70
2023-01-25T11:58:04.971Z,8.40
2023-01-25T11:59:04.943Z,8.60
2023-01-25T12:00:04.964Z,8.90
2023-01-25T12:01:04.934Z,8.20
2023-01-25T12:02:04.922Z,9.70
2023-01-25T12:03:04.966Z,8.40
2023-01-25T12:04:05.053Z,8.40
2023-01-25T12:05:12.621Z,8.70
2023-01-25T12:06:04.903Z,8.60
2023-01-25T12:07:04.915Z,9.10
2023-01-25T12:08:04.895Z,9.60
2023-01-25T12:09:04.893Z,8.00
2023-01-25T12:10:04.887Z,8.30
2023-01-25T12:11:04.885Z,8.10
2023-01-25T12:12:04.876Z,8.00
2023-01-25T12:13:04.902Z,8.10
2023-01-25T12:14:04.869Z,8.20
2023-01-25T12:15:07.251Z,8.70
2023-01-25T12:16:04.901Z,8.00
2023-01-25T12:17:05.056Z,8.50
2023-01-25T12:18:04.844Z,8.20
2023-01-25T12:19:04.845Z,7.80
2023-01-25T12:20:04.834Z,7.60
2023-01-25T12:21:07.826Z,8.00
2023-01-25T12:22:04.819Z,8.00
2023-01-25T12:23:04.827Z,7.90
2023-01-25T12:24:04.930Z,8.20
2023-01-25T12:25:04.809Z,7.50
2023-01-25T12:26:04.802Z,7.60
2023-01-25T12:27:04.804Z,8.00
2023-01-25T12:28:04.802Z,7.60
2023-01-25T12:29:04.849Z,7.70
2023-01-25T12:30:04.787Z,7.40
2023-01-25T12:31:04.938Z,8.50
2023-01-25T12:32:04.776Z,7.60
2023-01-25T12:33:14.456Z,7.30
2023-01-25T12:34:04.773Z,7.50
2023-01-25T12:35:04.782Z,7.00
2023-01-25T12:36:04.761Z,7.90
2023-01-25T12:37:04.745Z,8.20
2023-01-25T12:38:04.748Z,7.90
2023-01-25T12:39:04.742Z,8.30
2023-01-25T12:40:04.736Z,8.20
2023-01-25T12:41:04.728Z,8.30
2023-01-25T12:42:04.727Z,8.50
2023-01-25T12:43:04.722Z,9.40
2023-01-25T12:44:04.720Z,8.40
2023-01-25T12:45:04.733Z,8.90
2023-01-25T12:46:04.723Z,8.40
2023-01-25T12:47:04.707Z,9.00
2023-01-25T12:48:04.696Z,8.30
2023-01-25T12:49:04.693Z,9.00
2023-01-25T12:50:04.715Z,8.30
2023-01-25T12:51:04.689Z,8.40
2023-01-25T12:52:04.695Z,8.70
2023-01-25T12:53:04.674Z,8.60
2023-01-25T12:54:04.667Z,8.20
2023-01-25T12:55:04.656Z,8.40
2023-01-25T12:56:04.659Z,9.50
2023-01-25T12:57:04.652Z,9.20
2023-01-25T12:58:04.656Z,8.60
2023-01-25T12:59:04.638Z,8.20
2023-01-25T13:00:04.635Z,8.80
2023-01-25T13:01:04.680Z,8.90
2023-01-25T13:02:04.678Z,9.00
2023-01-25T13:03:04.624Z,8.80
2023-01-25T13:04:04.616Z,8.40
2023-01-25T13:05:04.606Z,8.90
2023-01-25T13:06:04.622Z,8.90
2023-01-25T13:07:04.599Z,8.20
2023-01-25T13:08:04.629Z,8.40
2023-01-25T13:09:04.586Z,8.40
2023-01-25T13:10:04.588Z,8.30
2023-01-25T13:11:04.585Z,8.80
2023-01-25T13:12:04.591Z,8.80
2023-01-25T13:13:04.574Z,8.90